sensor_id;sensor_type;location;lat;lon;timestamp;P1;durP1;ratioP1;P2;durP2;ratioP2
20970;SDS011;10644;48.834;10.088;2022-11-20T00:01:14;20.03;;;10.77;;
20970;SDS011;10644;48.834;10.088;2022-11-20T00:03:45;12.80;;;9.15;;
20970;SDS011;10644;48.834;10.088;2022-11-20T00:06:11;16.90;;;8.93;;
20970;SDS011;10644;48.834;10.088;2022-11-20T00:08:42;14.27;;;8.40;;
20970;SDS011;10644;48.834;10.088;2022-11-20T00:11:09;14.53;;;8.97;;
20970;SDS011;10644;48.834;10.088;2022-11-20T00:13:35;14.13;;;8.65;;
20970;SDS011;10644;48.834;10.088;2022-11-20T00:16:02;15.10;;;8.80;;
20970;SDS011;10644;48.834;10.088;2022-11-20T00:18:36;11.80;;;8.57;;
20970;SDS011;10644;48.834;10.088;2022-11-20T00:21:19;15.57;;;8.85;;
20970;SDS011;10644;48.834;10.088;2022-11-20T00:23:48;13.90;;;8.48;;
20970;SDS011;10644;48.834;10.088;2022-11-20T00:26:15;14.95;;;9.20;;
20970;SDS011;10644;48.834;10.088;2022-11-20T00:28:43;12.70;;;9.07;;
20970;SDS011;10644;48.834;10.088;2022-11-20T00:31:13;14.75;;;9.27;;
20970;SDS011;10644;48.834;10.088;2022-11-20T00:33:41;15.98;;;9.52;;
20970;SDS011;10644;48.834;10.088;2022-11-20T00:36:09;22.38;;;8.98;;
20970;SDS011;10644;48.834;10.088;2022-11-20T00:38:35;15.52;;;8.82;;
20970;SDS011;10644;48.834;10.088;2022-11-20T00:41:02;14.00;;;9.43;;
20970;SDS011;10644;48.834;10.088;2022-11-20T00:43:29;14.45;;;8.70;;
20970;SDS011;10644;48.834;10.088;2022-11-20T00:46:02;26.57;;;15.17;;
20970;SDS011;10644;48.834;10.088;2022-11-20T00:48:47;14.63;;;8.90;;
20970;SDS011;10644;48.834;10.088;2022-11-20T00:51:16;17.73;;;8.77;;
20970;SDS011;10644;48.834;10.088;2022-11-20T00:53:48;16.13;;;9.70;;
20970;SDS011;10644;48.834;10.088;2022-11-20T00:56:15;13.82;;;8.07;;
20970;SDS011;10644;48.834;10.088;2022-11-20T00:58:42;14.75;;;7.85;;
20970;SDS011;10644;48.834;10.088;2022-11-20T01:01:09;12.10;;;7.70;;
20970;SDS011;10644;48.834;10.088;2022-11-20T01:03:41;10.65;;;7.10;;
20970;SDS011;10644;48.834;10.088;2022-11-20T01:06:09;13.63;;;8.45;;
20970;SDS011;10644;48.834;10.088;2022-11-20T01:08:43;12.27;;;8.68;;
20970;SDS011;10644;48.834;10.088;2022-11-20T01:11:10;14.88;;;7.75;;
20970;SDS011;10644;48.834;10.088;2022-11-20T01:13:37;12.95;;;7.30;;
20970;SDS011;10644;48.834;10.088;2022-11-20T01:16:07;12.68;;;8.35;;
20970;SDS011;10644;48.834;10.088;2022-11-20T01:18:38;11.60;;;7.55;;
20970;SDS011;10644;48.834;10.088;2022-11-20T01:21:06;12.75;;;7.13;;
20970;SDS011;10644;48.834;10.088;2022-11-20T01:23:36;10.50;;;7.38;;
20970;SDS011;10644;48.834;10.088;2022-11-20T01:26:04;12.85;;;7.75;;
20970;SDS011;10644;48.834;10.088;2022-11-20T01:28:32;10.82;;;7.15;;
20970;SDS011;10644;48.834;10.088;2022-11-20T01:31:00;8.60;;;6.27;;
20970;SDS011;10644;48.834;10.088;2022-11-20T01:33:28;11.45;;;7.10;;
20970;SDS011;10644;48.834;10.088;2022-11-20T01:36:02;8.43;;;6.20;;
20970;SDS011;10644;48.834;10.088;2022-11-20T01:38:29;9.73;;;6.72;;
20970;SDS011;10644;48.834;10.088;2022-11-20T01:40:54;12.40;;;7.07;;
20970;SDS011;10644;48.834;10.088;2022-11-20T01:43:20;13.40;;;7.75;;
20970;SDS011;10644;48.834;10.088;2022-11-20T01:49:00;12.00;;;6.35;;
20970;SDS011;10644;48.834;10.088;2022-11-20T01:56:44;8.90;;;5.85;;
20970;SDS011;10644;48.834;10.088;2022-11-20T01:59:13;10.02;;;6.05;;
20970;SDS011;10644;48.834;10.088;2022-11-20T02:01:42;22.08;;;7.03;;
20970;SDS011;10644;48.834;10.088;2022-11-20T02:04:08;10.37;;;5.90;;
20970;SDS011;10644;48.834;10.088;2022-11-20T02:06:36;12.10;;;7.00;;
20970;SDS011;10644;48.834;10.088;2022-11-20T02:09:07;13.32;;;6.30;;
20970;SDS011;10644;48.834;10.088;2022-11-20T02:11:32;7.67;;;5.07;;
20970;SDS011;10644;48.834;10.088;2022-11-20T02:14:00;9.77;;;5.30;;
20970;SDS011;10644;48.834;10.088;2022-11-20T02:16:27;14.45;;;6.68;;
20970;SDS011;10644;48.834;10.088;2022-11-20T02:18:54;8.57;;;5.60;;
20970;SDS011;10644;48.834;10.088;2022-11-20T02:26:42;8.52;;;5.20;;
20970;SDS011;10644;48.834;10.088;2022-11-20T02:29:12;9.68;;;5.72;;
20970;SDS011;10644;48.834;10.088;2022-11-20T02:31:42;9.23;;;5.60;;
20970;SDS011;10644;48.834;10.088;2022-11-20T02:34:08;8.68;;;5.47;;
20970;SDS011;10644;48.834;10.088;2022-11-20T02:36:38;6.97;;;4.55;;
20970;SDS011;10644;48.834;10.088;2022-11-20T02:39:05;7.28;;;4.97;;
20970;SDS011;10644;48.834;10.088;2022-11-20T02:41:35;8.73;;;5.93;;
20970;SDS011;10644;48.834;10.088;2022-11-20T02:44:02;8.38;;;5.53;;
20970;SDS011;10644;48.834;10.088;2022-11-20T02:46:28;8.80;;;5.85;;
20970;SDS011;10644;48.834;10.088;2022-11-20T02:48:54;13.38;;;5.30;;
20970;SDS011;10644;48.834;10.088;2022-11-20T02:51:20;9.27;;;5.53;;
20970;SDS011;10644;48.834;10.088;2022-11-20T02:53:45;8.20;;;4.77;;
20970;SDS011;10644;48.834;10.088;2022-11-20T02:56:11;8.40;;;4.97;;
20970;SDS011;10644;48.834;10.088;2022-11-20T02:58:36;19.10;;;5.90;;
20970;SDS011;10644;48.834;10.088;2022-11-20T03:01:01;9.90;;;5.30;;
20970;SDS011;10644;48.834;10.088;2022-11-20T03:03:27;7.10;;;4.57;;
20970;SDS011;10644;48.834;10.088;2022-11-20T03:05:54;7.80;;;5.00;;
20970;SDS011;10644;48.834;10.088;2022-11-20T03:08:19;11.90;;;5.50;;
20970;SDS011;10644;48.834;10.088;2022-11-20T03:10:45;9.93;;;4.30;;
20970;SDS011;10644;48.834;10.088;2022-11-20T03:13:10;9.60;;;5.30;;
20970;SDS011;10644;48.834;10.088;2022-11-20T03:15:36;12.47;;;5.00;;
20970;SDS011;10644;48.834;10.088;2022-11-20T03:18:03;7.38;;;4.63;;
20970;SDS011;10644;48.834;10.088;2022-11-20T03:20:28;9.20;;;5.13;;
20970;SDS011;10644;48.834;10.088;2022-11-20T03:22:55;7.07;;;5.27;;
20970;SDS011;10644;48.834;10.088;2022-11-20T03:25:22;6.20;;;4.63;;
20970;SDS011;10644;48.834;10.088;2022-11-20T03:30:16;9.85;;;5.22;;
20970;SDS011;10644;48.834;10.088;2022-11-20T03:32:42;8.87;;;4.90;;
20970;SDS011;10644;48.834;10.088;2022-11-20T03:35:08;5.23;;;4.20;;
20970;SDS011;10644;48.834;10.088;2022-11-20T03:37:33;10.90;;;5.77;;
20970;SDS011;10644;48.834;10.088;2022-11-20T03:39:59;6.37;;;4.30;;
20970;SDS011;10644;48.834;10.088;2022-11-20T03:42:31;8.30;;;4.73;;
20970;SDS011;10644;48.834;10.088;2022-11-20T03:45:16;6.30;;;4.70;;
20970;SDS011;10644;48.834;10.088;2022-11-20T03:47:43;9.00;;;5.50;;
20970;SDS011;10644;48.834;10.088;2022-11-20T03:50:10;5.90;;;4.80;;
20970;SDS011;10644;48.834;10.088;2022-11-20T03:52:42;6.82;;;4.88;;
20970;SDS011;10644;48.834;10.088;2022-11-20T03:55:10;10.93;;;5.40;;
20970;SDS011;10644;48.834;10.088;2022-11-20T03:57:35;7.85;;;5.07;;
20970;SDS011;10644;48.834;10.088;2022-11-20T04:00:04;9.05;;;5.35;;
20970;SDS011;10644;48.834;10.088;2022-11-20T04:02:30;8.88;;;4.75;;
20970;SDS011;10644;48.834;10.088;2022-11-20T04:04:59;7.43;;;5.20;;
20970;SDS011;10644;48.834;10.088;2022-11-20T04:07:33;8.10;;;5.22;;
20970;SDS011;10644;48.834;10.088;2022-11-20T04:09:58;8.32;;;5.50;;
20970;SDS011;10644;48.834;10.088;2022-11-20T04:12:24;7.43;;;5.20;;
20970;SDS011;10644;48.834;10.088;2022-11-20T04:14:49;9.30;;;5.90;;
20970;SDS011;10644;48.834;10.088;2022-11-20T04:17:14;8.07;;;5.10;;
20970;SDS011;10644;48.834;10.088;2022-11-20T04:19:40;10.53;;;5.90;;
20970;SDS011;10644;48.834;10.088;2022-11-20T04:22:05;9.43;;;5.50;;
20970;SDS011;10644;48.834;10.088;2022-11-20T04:24:30;6.50;;;4.90;;
20970;SDS011;10644;48.834;10.088;2022-11-20T04:26:56;6.73;;;4.67;;
20970;SDS011;10644;48.834;10.088;2022-11-20T04:29:21;7.40;;;4.60;;
20970;SDS011;10644;48.834;10.088;2022-11-20T04:31:47;7.63;;;4.70;;
20970;SDS011;10644;48.834;10.088;2022-11-20T04:34:12;7.73;;;4.30;;
20970;SDS011;10644;48.834;10.088;2022-11-20T04:36:37;5.77;;;4.40;;
20970;SDS011;10644;48.834;10.088;2022-11-20T04:39:04;6.77;;;4.83;;
20970;SDS011;10644;48.834;10.088;2022-11-20T04:41:31;6.30;;;4.00;;
20970;SDS011;10644;48.834;10.088;2022-11-20T04:43:59;4.40;;;3.63;;
20970;SDS011;10644;48.834;10.088;2022-11-20T04:46:28;7.35;;;4.05;;
20970;SDS011;10644;48.834;10.088;2022-11-20T04:48:55;6.50;;;4.05;;
20970;SDS011;10644;48.834;10.088;2022-11-20T04:51:21;7.50;;;4.03;;
20970;SDS011;10644;48.834;10.088;2022-11-20T04:53:47;5.60;;;3.97;;
20970;SDS011;10644;48.834;10.088;2022-11-20T04:56:13;5.70;;;4.10;;
20970;SDS011;10644;48.834;10.088;2022-11-20T04:58:39;6.47;;;4.23;;
20970;SDS011;10644;48.834;10.088;2022-11-20T05:01:19;4.65;;;3.70;;
20970;SDS011;10644;48.834;10.088;2022-11-20T05:03:46;6.05;;;4.10;;
20970;SDS011;10644;48.834;10.088;2022-11-20T05:06:12;9.40;;;4.77;;
20970;SDS011;10644;48.834;10.088;2022-11-20T05:08:39;6.05;;;3.83;;
20970;SDS011;10644;48.834;10.088;2022-11-20T05:11:09;8.25;;;4.25;;
20970;SDS011;10644;48.834;10.088;2022-11-20T05:13:38;5.20;;;4.00;;
20970;SDS011;10644;48.834;10.088;2022-11-20T05:16:08;5.20;;;3.95;;
20970;SDS011;10644;48.834;10.088;2022-11-20T05:18:38;5.53;;;4.10;;
20970;SDS011;10644;48.834;10.088;2022-11-20T05:21:04;5.68;;;4.00;;
20970;SDS011;10644;48.834;10.088;2022-11-20T05:23:32;4.07;;;3.13;;
20970;SDS011;10644;48.834;10.088;2022-11-20T05:25:58;7.18;;;3.83;;
20970;SDS011;10644;48.834;10.088;2022-11-20T05:28:25;6.35;;;4.55;;
20970;SDS011;10644;48.834;10.088;2022-11-20T05:30:53;5.25;;;4.05;;
20970;SDS011;10644;48.834;10.088;2022-11-20T05:33:20;4.10;;;3.55;;
20970;SDS011;10644;48.834;10.088;2022-11-20T05:35:49;6.90;;;3.93;;
20970;SDS011;10644;48.834;10.088;2022-11-20T05:38:15;8.93;;;4.07;;
20970;SDS011;10644;48.834;10.088;2022-11-20T05:40:41;6.27;;;4.20;;
20970;SDS011;10644;48.834;10.088;2022-11-20T05:43:06;4.13;;;3.70;;
20970;SDS011;10644;48.834;10.088;2022-11-20T05:45:31;5.93;;;3.97;;
20970;SDS011;10644;48.834;10.088;2022-11-20T05:47:59;4.37;;;3.30;;
20970;SDS011;10644;48.834;10.088;2022-11-20T05:50:32;6.20;;;3.70;;
20970;SDS011;10644;48.834;10.088;2022-11-20T05:52:58;6.32;;;4.30;;
20970;SDS011;10644;48.834;10.088;2022-11-20T05:55:26;6.32;;;3.28;;
20970;SDS011;10644;48.834;10.088;2022-11-20T05:57:54;5.00;;;4.07;;
20970;SDS011;10644;48.834;10.088;2022-11-20T06:00:20;6.33;;;4.30;;
20970;SDS011;10644;48.834;10.088;2022-11-20T06:02:46;3.70;;;3.17;;
20970;SDS011;10644;48.834;10.088;2022-11-20T06:05:11;6.07;;;3.38;;
20970;SDS011;10644;48.834;10.088;2022-11-20T06:07:37;4.40;;;3.40;;
20970;SDS011;10644;48.834;10.088;2022-11-20T06:10:02;8.50;;;3.80;;
20970;SDS011;10644;48.834;10.088;2022-11-20T06:12:28;5.50;;;3.60;;
20970;SDS011;10644;48.834;10.088;2022-11-20T06:15:05;5.93;;;3.95;;
20970;SDS011;10644;48.834;10.088;2022-11-20T06:17:30;3.58;;;3.28;;
20970;SDS011;10644;48.834;10.088;2022-11-20T06:19:58;4.15;;;3.50;;
20970;SDS011;10644;48.834;10.088;2022-11-20T06:22:25;5.13;;;3.60;;
20970;SDS011;10644;48.834;10.088;2022-11-20T06:24:54;6.10;;;4.20;;
20970;SDS011;10644;48.834;10.088;2022-11-20T06:27:21;5.38;;;4.38;;
20970;SDS011;10644;48.834;10.088;2022-11-20T06:29:48;6.95;;;4.13;;
20970;SDS011;10644;48.834;10.088;2022-11-20T06:32:14;5.53;;;3.72;;
20970;SDS011;10644;48.834;10.088;2022-11-20T06:34:40;7.05;;;4.32;;
20970;SDS011;10644;48.834;10.088;2022-11-20T06:37:06;7.53;;;4.07;;
20970;SDS011;10644;48.834;10.088;2022-11-20T06:39:33;5.50;;;3.40;;
20970;SDS011;10644;48.834;10.088;2022-11-20T06:41:59;7.75;;;4.38;;
20970;SDS011;10644;48.834;10.088;2022-11-20T06:44:24;6.90;;;4.70;;
20970;SDS011;10644;48.834;10.088;2022-11-20T06:46:51;5.93;;;4.53;;
20970;SDS011;10644;48.834;10.088;2022-11-20T06:49:16;5.50;;;3.70;;
20970;SDS011;10644;48.834;10.088;2022-11-20T06:51:42;5.63;;;4.07;;
20970;SDS011;10644;48.834;10.088;2022-11-20T06:54:07;6.47;;;4.83;;
20970;SDS011;10644;48.834;10.088;2022-11-20T06:56:34;4.87;;;3.40;;
20970;SDS011;10644;48.834;10.088;2022-11-20T06:59:03;6.43;;;4.45;;
20970;SDS011;10644;48.834;10.088;2022-11-20T07:01:29;5.18;;;3.67;;
20970;SDS011;10644;48.834;10.088;2022-11-20T07:03:55;8.00;;;4.40;;
20970;SDS011;10644;48.834;10.088;2022-11-20T07:06:25;5.80;;;4.10;;
20970;SDS011;10644;48.834;10.088;2022-11-20T07:08:57;8.70;;;4.22;;
20970;SDS011;10644;48.834;10.088;2022-11-20T07:11:23;5.45;;;4.00;;
20970;SDS011;10644;48.834;10.088;2022-11-20T07:13:48;6.90;;;4.23;;
20970;SDS011;10644;48.834;10.088;2022-11-20T07:16:16;4.63;;;4.03;;
20970;SDS011;10644;48.834;10.088;2022-11-20T07:18:42;4.03;;;3.00;;
20970;SDS011;10644;48.834;10.088;2022-11-20T07:21:08;4.60;;;3.70;;
20970;SDS011;10644;48.834;10.088;2022-11-20T07:23:34;5.15;;;4.00;;
20970;SDS011;10644;48.834;10.088;2022-11-20T07:26:07;4.73;;;2.77;;
20970;SDS011;10644;48.834;10.088;2022-11-20T07:28:36;3.65;;;2.70;;
20970;SDS011;10644;48.834;10.088;2022-11-20T07:31:09;6.70;;;3.87;;
20970;SDS011;10644;48.834;10.088;2022-11-20T07:33:37;3.30;;;2.55;;
20970;SDS011;10644;48.834;10.088;2022-11-20T07:36:05;2.88;;;2.55;;
20970;SDS011;10644;48.834;10.088;2022-11-20T07:38:33;2.57;;;2.00;;
20970;SDS011;10644;48.834;10.088;2022-11-20T07:40:59;3.45;;;2.65;;
20970;SDS011;10644;48.834;10.088;2022-11-20T07:43:26;4.13;;;2.30;;
20970;SDS011;10644;48.834;10.088;2022-11-20T07:45:54;5.13;;;3.00;;
20970;SDS011;10644;48.834;10.088;2022-11-20T07:48:23;4.72;;;2.40;;
20970;SDS011;10644;48.834;10.088;2022-11-20T07:50:49;5.25;;;2.80;;
20970;SDS011;10644;48.834;10.088;2022-11-20T07:53:14;2.43;;;2.23;;
20970;SDS011;10644;48.834;10.088;2022-11-20T07:55:45;5.75;;;3.10;;
20970;SDS011;10644;48.834;10.088;2022-11-20T07:58:11;3.75;;;2.30;;
20970;SDS011;10644;48.834;10.088;2022-11-20T08:00:38;6.30;;;2.30;;
20970;SDS011;10644;48.834;10.088;2022-11-20T08:03:03;4.25;;;2.95;;
20970;SDS011;10644;48.834;10.088;2022-11-20T08:05:29;3.28;;;2.45;;
20970;SDS011;10644;48.834;10.088;2022-11-20T08:07:54;4.60;;;2.80;;
20970;SDS011;10644;48.834;10.088;2022-11-20T08:10:20;3.60;;;2.83;;
20970;SDS011;10644;48.834;10.088;2022-11-20T08:12:46;4.20;;;3.00;;
20970;SDS011;10644;48.834;10.088;2022-11-20T08:15:31;3.22;;;2.03;;
20970;SDS011;10644;48.834;10.088;2022-11-20T08:18:03;4.80;;;2.50;;
20970;SDS011;10644;48.834;10.088;2022-11-20T08:20:37;5.53;;;2.50;;
20970;SDS011;10644;48.834;10.088;2022-11-20T08:23:10;4.05;;;2.72;;
20970;SDS011;10644;48.834;10.088;2022-11-20T08:25:36;3.03;;;1.75;;
20970;SDS011;10644;48.834;10.088;2022-11-20T08:28:04;3.95;;;2.72;;
20970;SDS011;10644;48.834;10.088;2022-11-20T08:30:31;2.40;;;1.95;;
20970;SDS011;10644;48.834;10.088;2022-11-20T08:33:08;3.65;;;2.13;;
20970;SDS011;10644;48.834;10.088;2022-11-20T08:35:37;2.50;;;2.10;;
20970;SDS011;10644;48.834;10.088;2022-11-20T08:38:04;3.90;;;2.58;;
20970;SDS011;10644;48.834;10.088;2022-11-20T08:40:33;3.33;;;2.10;;
20970;SDS011;10644;48.834;10.088;2022-11-20T08:43:04;3.17;;;1.90;;
20970;SDS011;10644;48.834;10.088;2022-11-20T08:45:38;2.10;;;1.80;;
20970;SDS011;10644;48.834;10.088;2022-11-20T08:48:03;4.20;;;2.42;;
20970;SDS011;10644;48.834;10.088;2022-11-20T08:50:33;2.05;;;1.85;;
20970;SDS011;10644;48.834;10.088;2022-11-20T08:53:16;3.35;;;2.35;;
20970;SDS011;10644;48.834;10.088;2022-11-20T08:55:45;4.30;;;1.98;;
20970;SDS011;10644;48.834;10.088;2022-11-20T09:01:03;7.10;;;2.58;;
20970;SDS011;10644;48.834;10.088;2022-11-20T09:03:30;2.75;;;1.73;;
20970;SDS011;10644;48.834;10.088;2022-11-20T09:06:00;4.68;;;2.17;;
20970;SDS011;10644;48.834;10.088;2022-11-20T09:08:28;3.65;;;1.60;;
20970;SDS011;10644;48.834;10.088;2022-11-20T09:13:33;6.55;;;2.63;;
20970;SDS011;10644;48.834;10.088;2022-11-20T09:16:03;3.30;;;2.60;;
20970;SDS011;10644;48.834;10.088;2022-11-20T09:18:49;7.15;;;4.72;;
20970;SDS011;10644;48.834;10.088;2022-11-20T09:21:16;7.18;;;2.88;;
20970;SDS011;10644;48.834;10.088;2022-11-20T09:23:41;5.97;;;2.67;;
20970;SDS011;10644;48.834;10.088;2022-11-20T09:26:13;5.40;;;2.70;;
20970;SDS011;10644;48.834;10.088;2022-11-20T09:28:39;6.68;;;3.20;;
20970;SDS011;10644;48.834;10.088;2022-11-20T09:31:31;4.13;;;2.55;;
20970;SDS011;10644;48.834;10.088;2022-11-20T09:33:58;6.70;;;2.90;;
20970;SDS011;10644;48.834;10.088;2022-11-20T09:36:24;8.70;;;6.07;;
20970;SDS011;10644;48.834;10.088;2022-11-20T09:38:49;5.63;;;2.70;;
20970;SDS011;10644;48.834;10.088;2022-11-20T09:55:08;5.43;;;4.40;;
20970;SDS011;10644;48.834;10.088;2022-11-20T09:57:37;8.85;;;3.60;;
20970;SDS011;10644;48.834;10.088;2022-11-20T10:00:11;5.07;;;3.22;;
20970;SDS011;10644;48.834;10.088;2022-11-20T10:05:34;5.63;;;3.47;;
20970;SDS011;10644;48.834;10.088;2022-11-20T10:16:38;6.97;;;2.85;;
20970;SDS011;10644;48.834;10.088;2022-11-20T10:26:22;12.15;;;3.38;;
20970;SDS011;10644;48.834;10.088;2022-11-20T10:29:40;5.30;;;2.25;;
20970;SDS011;10644;48.834;10.088;2022-11-20T10:31:54;3.28;;;2.80;;
20970;SDS011;10644;48.834;10.088;2022-11-20T10:37:27;4.72;;;2.50;;
20970;SDS011;10644;48.834;10.088;2022-11-20T10:42:56;3.83;;;2.25;;
20970;SDS011;10644;48.834;10.088;2022-11-20T10:54:11;5.45;;;2.33;;
20970;SDS011;10644;48.834;10.088;2022-11-20T11:02:14;3.13;;;2.65;;
20970;SDS011;10644;48.834;10.088;2022-11-20T11:04:51;2.30;;;2.10;;
20970;SDS011;10644;48.834;10.088;2022-11-20T11:07:22;4.88;;;2.60;;
20970;SDS011;10644;48.834;10.088;2022-11-20T11:09:55;7.18;;;2.85;;
20970;SDS011;10644;48.834;10.088;2022-11-20T11:12:22;5.13;;;3.15;;
20970;SDS011;10644;48.834;10.088;2022-11-20T11:14:52;6.15;;;3.08;;
20970;SDS011;10644;48.834;10.088;2022-11-20T11:20:05;3.40;;;2.40;;
20970;SDS011;10644;48.834;10.088;2022-11-20T11:22:46;6.30;;;3.47;;
20970;SDS011;10644;48.834;10.088;2022-11-20T11:25:33;5.05;;;2.55;;
20970;SDS011;10644;48.834;10.088;2022-11-20T11:28:02;3.05;;;2.05;;
20970;SDS011;10644;48.834;10.088;2022-11-20T11:30:40;2.20;;;2.03;;
20970;SDS011;10644;48.834;10.088;2022-11-20T11:36:04;3.25;;;2.25;;
20970;SDS011;10644;48.834;10.088;2022-11-20T11:38:48;2.25;;;2.05;;
20970;SDS011;10644;48.834;10.088;2022-11-20T11:44:20;6.10;;;2.50;;
20970;SDS011;10644;48.834;10.088;2022-11-20T11:47:05;6.60;;;3.30;;
20970;SDS011;10644;48.834;10.088;2022-11-20T11:49:38;4.50;;;3.40;;
20970;SDS011;10644;48.834;10.088;2022-11-20T12:00:23;4.43;;;2.97;;
20970;SDS011;10644;48.834;10.088;2022-11-20T12:03:53;4.07;;;2.40;;
20970;SDS011;10644;48.834;10.088;2022-11-20T12:06:05;4.10;;;2.53;;
20970;SDS011;10644;48.834;10.088;2022-11-20T12:09:04;3.00;;;2.50;;
20970;SDS011;10644;48.834;10.088;2022-11-20T12:14:47;2.22;;;1.98;;
20970;SDS011;10644;48.834;10.088;2022-11-20T12:17:15;3.72;;;2.28;;
20970;SDS011;10644;48.834;10.088;2022-11-20T12:19:43;7.28;;;3.10;;
20970;SDS011;10644;48.834;10.088;2022-11-20T12:25:12;3.33;;;1.90;;
20970;SDS011;10644;48.834;10.088;2022-11-20T12:39:07;6.60;;;2.75;;
20970;SDS011;10644;48.834;10.088;2022-11-20T12:50:37;4.53;;;2.25;;
20970;SDS011;10644;48.834;10.088;2022-11-20T13:07:10;5.18;;;2.72;;
20970;SDS011;10644;48.834;10.088;2022-11-20T13:09:42;3.50;;;2.58;;
20970;SDS011;10644;48.834;10.088;2022-11-20T13:12:12;7.28;;;4.03;;
20970;SDS011;10644;48.834;10.088;2022-11-20T13:17:59;15.30;;;9.75;;
20970;SDS011;10644;48.834;10.088;2022-11-20T13:20:29;6.60;;;4.07;;
20970;SDS011;10644;48.834;10.088;2022-11-20T13:23:01;6.07;;;3.33;;
20970;SDS011;10644;48.834;10.088;2022-11-20T13:25:31;8.07;;;4.78;;
20970;SDS011;10644;48.834;10.088;2022-11-20T13:30:35;4.47;;;2.90;;
20970;SDS011;10644;48.834;10.088;2022-11-20T13:38:56;6.60;;;3.33;;
20970;SDS011;10644;48.834;10.088;2022-11-20T13:41:36;4.85;;;2.78;;
20970;SDS011;10644;48.834;10.088;2022-11-20T13:46:38;6.80;;;3.37;;
20970;SDS011;10644;48.834;10.088;2022-11-20T13:49:31;4.90;;;2.95;;
20970;SDS011;10644;48.834;10.088;2022-11-20T14:00:23;21.07;;;7.17;;
20970;SDS011;10644;48.834;10.088;2022-11-20T14:03:07;16.70;;;9.80;;
20970;SDS011;10644;48.834;10.088;2022-11-20T14:05:51;7.40;;;3.60;;
20970;SDS011;10644;48.834;10.088;2022-11-20T14:08:53;10.60;;;8.15;;
20970;SDS011;10644;48.834;10.088;2022-11-20T14:11:17;10.65;;;6.70;;
20970;SDS011;10644;48.834;10.088;2022-11-20T14:16:48;5.00;;;2.93;;
20970;SDS011;10644;48.834;10.088;2022-11-20T14:19:35;7.95;;;2.70;;
20970;SDS011;10644;48.834;10.088;2022-11-20T14:22:20;7.82;;;2.97;;
20970;SDS011;10644;48.834;10.088;2022-11-20T14:27:36;7.68;;;3.33;;
20970;SDS011;10644;48.834;10.088;2022-11-20T14:30:04;9.73;;;3.20;;
20970;SDS011;10644;48.834;10.088;2022-11-20T14:32:34;2.75;;;1.90;;
20970;SDS011;10644;48.834;10.088;2022-11-20T14:35:02;7.20;;;3.15;;
20970;SDS011;10644;48.834;10.088;2022-11-20T14:37:36;3.05;;;2.40;;
20970;SDS011;10644;48.834;10.088;2022-11-20T14:40:05;8.82;;;3.50;;
20970;SDS011;10644;48.834;10.088;2022-11-20T14:42:51;5.57;;;3.55;;
20970;SDS011;10644;48.834;10.088;2022-11-20T14:45:16;6.93;;;3.55;;
20970;SDS011;10644;48.834;10.088;2022-11-20T14:47:45;13.80;;;7.40;;
20970;SDS011;10644;48.834;10.088;2022-11-20T14:50:16;23.48;;;9.20;;
20970;SDS011;10644;48.834;10.088;2022-11-20T14:52:52;18.27;;;7.60;;
20970;SDS011;10644;48.834;10.088;2022-11-20T14:55:32;13.68;;;6.90;;
20970;SDS011;10644;48.834;10.088;2022-11-20T14:58:03;4.40;;;2.88;;
20970;SDS011;10644;48.834;10.088;2022-11-20T15:00:33;8.80;;;3.90;;
20970;SDS011;10644;48.834;10.088;2022-11-20T15:02:59;7.68;;;3.08;;
20970;SDS011;10644;48.834;10.088;2022-11-20T15:05:44;6.00;;;2.80;;
20970;SDS011;10644;48.834;10.088;2022-11-20T15:08:16;7.28;;;2.40;;
20970;SDS011;10644;48.834;10.088;2022-11-20T15:10:48;6.35;;;2.92;;
20970;SDS011;10644;48.834;10.088;2022-11-20T15:13:16;5.30;;;2.75;;
20970;SDS011;10644;48.834;10.088;2022-11-20T15:15:49;6.80;;;3.45;;
20970;SDS011;10644;48.834;10.088;2022-11-20T15:18:21;10.70;;;4.40;;
20970;SDS011;10644;48.834;10.088;2022-11-20T15:20:49;11.23;;;3.47;;
20970;SDS011;10644;48.834;10.088;2022-11-20T15:23:20;7.55;;;2.67;;
20970;SDS011;10644;48.834;10.088;2022-11-20T15:25:48;8.32;;;3.35;;
20970;SDS011;10644;48.834;10.088;2022-11-20T15:30:59;14.43;;;4.00;;
20970;SDS011;10644;48.834;10.088;2022-11-20T15:33:34;6.55;;;3.50;;
20970;SDS011;10644;48.834;10.088;2022-11-20T15:36:04;12.65;;;4.72;;
20970;SDS011;10644;48.834;10.088;2022-11-20T15:38:40;5.78;;;2.67;;
20970;SDS011;10644;48.834;10.088;2022-11-20T15:41:06;4.28;;;2.28;;
20970;SDS011;10644;48.834;10.088;2022-11-20T15:43:33;7.95;;;3.00;;
20970;SDS011;10644;48.834;10.088;2022-11-20T15:46:15;7.82;;;2.47;;
20970;SDS011;10644;48.834;10.088;2022-11-20T15:48:49;9.32;;;3.70;;
20970;SDS011;10644;48.834;10.088;2022-11-20T15:54:01;5.15;;;2.50;;
20970;SDS011;10644;48.834;10.088;2022-11-20T15:56:34;7.80;;;3.15;;
20970;SDS011;10644;48.834;10.088;2022-11-20T15:59:00;10.23;;;3.90;;
20970;SDS011;10644;48.834;10.088;2022-11-20T16:01:33;8.60;;;3.80;;
20970;SDS011;10644;48.834;10.088;2022-11-20T16:06:32;6.82;;;3.30;;
20970;SDS011;10644;48.834;10.088;2022-11-20T16:14:05;5.75;;;3.45;;
20970;SDS011;10644;48.834;10.088;2022-11-20T16:16:49;12.27;;;3.95;;
20970;SDS011;10644;48.834;10.088;2022-11-20T16:19:16;7.07;;;3.13;;
20970;SDS011;10644;48.834;10.088;2022-11-20T16:21:42;7.25;;;3.53;;
20970;SDS011;10644;48.834;10.088;2022-11-20T16:24:09;6.60;;;2.83;;
20970;SDS011;10644;48.834;10.088;2022-11-20T16:26:37;9.70;;;3.17;;
20970;SDS011;10644;48.834;10.088;2022-11-20T16:29:03;7.57;;;3.28;;
20970;SDS011;10644;48.834;10.088;2022-11-20T16:31:32;9.07;;;3.72;;
20970;SDS011;10644;48.834;10.088;2022-11-20T16:34:00;3.00;;;2.47;;
20970;SDS011;10644;48.834;10.088;2022-11-20T16:36:27;10.35;;;3.25;;
20970;SDS011;10644;48.834;10.088;2022-11-20T16:41:20;5.80;;;3.05;;
20970;SDS011;10644;48.834;10.088;2022-11-20T16:43:59;5.77;;;2.70;;
20970;SDS011;10644;48.834;10.088;2022-11-20T16:46:32;4.95;;;2.50;;
20970;SDS011;10644;48.834;10.088;2022-11-20T16:49:00;5.75;;;2.30;;
20970;SDS011;10644;48.834;10.088;2022-11-20T16:51:30;7.80;;;3.47;;
20970;SDS011;10644;48.834;10.088;2022-11-20T16:54:00;5.63;;;2.90;;
20970;SDS011;10644;48.834;10.088;2022-11-20T16:56:28;7.15;;;3.70;;
20970;SDS011;10644;48.834;10.088;2022-11-20T16:58:55;8.63;;;4.55;;
20970;SDS011;10644;48.834;10.088;2022-11-20T17:01:21;11.27;;;5.75;;
20970;SDS011;10644;48.834;10.088;2022-11-20T17:06:34;8.13;;;3.78;;
20970;SDS011;10644;48.834;10.088;2022-11-20T17:09:04;5.85;;;2.78;;
20970;SDS011;10644;48.834;10.088;2022-11-20T17:11:40;6.50;;;3.47;;
20970;SDS011;10644;48.834;10.088;2022-11-20T17:14:14;3.55;;;2.40;;
20970;SDS011;10644;48.834;10.088;2022-11-20T17:16:42;7.50;;;3.35;;
20970;SDS011;10644;48.834;10.088;2022-11-20T17:19:07;8.77;;;4.38;;
20970;SDS011;10644;48.834;10.088;2022-11-20T17:21:34;6.10;;;2.90;;
20970;SDS011;10644;48.834;10.088;2022-11-20T17:24:03;3.58;;;2.33;;
20970;SDS011;10644;48.834;10.088;2022-11-20T17:31:40;6.93;;;2.35;;
20970;SDS011;10644;48.834;10.088;2022-11-20T17:34:07;3.22;;;1.90;;
20970;SDS011;10644;48.834;10.088;2022-11-20T17:36:36;3.63;;;2.10;;
20970;SDS011;10644;48.834;10.088;2022-11-20T17:39:17;4.47;;;3.35;;
20970;SDS011;10644;48.834;10.088;2022-11-20T17:41:48;11.45;;;3.28;;
20970;SDS011;10644;48.834;10.088;2022-11-20T17:44:33;4.60;;;2.38;;
20970;SDS011;10644;48.834;10.088;2022-11-20T17:46:59;6.73;;;2.70;;
20970;SDS011;10644;48.834;10.088;2022-11-20T17:49:26;7.07;;;3.05;;